Time;durP1;ratioP1;P1;durP2;ratioP2;P2;SDS_P1;SDS_P2;PMS_P1;PMS_P2;Temp;Humidity;BMP_temperature;BMP_pressure;BME280_temperature;BME280_humidity;BME280_pressure;Samples;Min_cycle;Max_cycle;Signal;HPM_P1;HPM_P2
2021/01/20 00:00:46;;;;;;;2.45;1.02;;;;;;;-0.40;86.07;98371.91;5037170;28;45496;-78
2021/01/20 00:03:11;;;;;;;1.20;0.75;;;;;;;-0.37;85.78;98361.28;5037120;28;45294;-78
2021/01/20 00:05:37;;;;;;;1.23;0.70;;;;;;;-0.34;86.25;98371.56;5037383;28;45321;-78
2021/01/20 00:08:03;;;;;;;1.85;0.70;;;;;;;-0.35;85.78;98362.91;5037879;28;45442;-78
2021/01/20 00:10:28;;;;;;;1.65;0.80;;;;;;;-0.38;85.95;98344.78;5037360;28;45297;-78
2021/01/20 00:12:53;;;;;;;1.25;0.82;;;;;;;-0.46;86.11;98345.19;5037319;28;46096;-78
2021/01/20 00:15:21;;;;;;;2.40;1.00;;;;;;;-0.46;86.01;98342.56;5037311;28;45291;-78
2021/01/20 00:17:46;;;;;;;2.08;1.02;;;;;;;-0.42;84.73;98338.03;5035981;28;45235;-78
2021/01/20 00:20:12;;;;;;;3.72;1.55;;;;;;;-0.63;85.89;98334.81;5037476;28;45278;-78
2021/01/20 00:22:39;;;;;;;2.58;1.15;;;;;;;-0.57;86.36;98336.22;5039525;28;45186;-78
2021/01/20 00:25:05;;;;;;;1.20;0.80;;;;;;;-0.51;86.11;98338.50;5039567;28;45347;-78
2021/01/20 00:27:31;;;;;;;1.33;0.80;;;;;;;-0.49;86.44;98328.81;5040937;28;45480;-78
2021/01/20 00:29:56;;;;;;;1.52;0.80;;;;;;;-0.56;86.46;98330.09;5040225;28;45439;-78
2021/01/20 00:32:21;;;;;;;1.63;0.93;;;;;;;-0.60;87.04;98327.63;5026706;28;45990;-78
2021/01/20 00:34:47;;;;;;;3.38;0.90;;;;;;;-0.54;86.33;98318.63;5040596;28;45413;-78
2021/01/20 00:37:12;;;;;;;1.17;0.70;;;;;;;-0.48;85.38;98313.06;5028987;28;45448;-79
2021/01/20 00:39:38;;;;;;;1.40;0.60;;;;;;;-0.49;85.25;98315.75;5040418;28;45363;-78
2021/01/20 00:42:03;;;;;;;1.40;0.70;;;;;;;-0.42;85.98;98311.91;5040537;28;46206;-77
2021/01/20 00:44:29;;;;;;;1.92;1.00;;;;;;;-0.38;85.29;98313.41;5040481;28;45353;-77
2021/01/20 00:46:54;;;;;;;2.22;0.90;;;;;;;-0.47;85.90;98306.91;5040605;28;45475;-78
2021/01/20 00:49:19;;;;;;;1.73;1.10;;;;;;;-0.44;85.04;98303.31;5040215;28;45342;-78
2021/01/20 00:51:45;;;;;;;3.58;1.23;;;;;;;-0.72;86.00;98298.75;5040472;28;45913;-78
2021/01/20 00:54:10;;;;;;;1.45;0.70;;;;;;;-0.64;86.87;98296.56;5040081;28;45297;-78
2021/01/20 00:56:36;;;;;;;2.50;1.23;;;;;;;-0.68;85.61;98301.09;5040541;28;45233;-78
2021/01/20 00:59:01;;;;;;;1.58;0.70;;;;;;;-0.61;85.62;98301.63;5039808;28;45604;-78
2021/01/20 01:01:28;;;;;;;1.25;0.80;;;;;;;-0.73;86.02;98292.66;5040119;28;46129;-78
2021/01/20 01:03:53;;;;;;;1.80;0.75;;;;;;;-0.66;85.95;98290.56;5039909;28;45250;-78
2021/01/20 01:06:19;;;;;;;1.38;0.90;;;;;;;-0.61;86.26;98278.09;5040456;28;45259;-77
2021/01/20 01:08:44;;;;;;;1.92;0.70;;;;;;;-0.62;85.51;98273.81;5040141;28;45361;-78
2021/01/20 01:11:10;;;;;;;1.98;0.90;;;;;;;-0.64;85.40;98275.66;5040073;28;45222;-77
2021/01/20 01:13:35;;;;;;;1.55;0.90;;;;;;;-0.86;85.79;98275.97;5039835;28;45381;-78
2021/01/20 01:16:01;;;;;;;1.48;0.80;;;;;;;-0.67;86.65;98278.44;5040412;28;45448;-78
2021/01/20 01:18:26;;;;;;;2.38;1.10;;;;;;;-0.72;85.79;98278.69;5039653;28;45509;-77
2021/01/20 01:20:51;;;;;;;1.48;0.80;;;;;;;-0.61;86.46;98270.25;5040053;28;45500;-78
2021/01/20 01:23:17;;;;;;;2.47;1.05;;;;;;;-0.65;87.21;98258.31;5039822;28;45321;-78
2021/01/20 01:25:42;;;;;;;0.93;0.75;;;;;;;-0.75;86.83;98258.81;5040157;28;45468;-78
2021/01/20 01:28:12;;;;;;;1.20;0.60;;;;;;;-0.56;87.01;98256.94;5039803;28;45433;-78
2021/01/20 01:30:38;;;;;;;1.95;0.80;;;;;;;-0.56;86.54;98259.53;5033765;28;45955;-78
2021/01/20 01:33:04;;;;;;;2.05;0.90;;;;;;;-0.55;86.68;98272.53;5031184;28;45360;-77
2021/01/20 01:35:29;;;;;;;1.40;0.85;;;;;;;-0.65;86.24;98272.19;5034294;28;45483;-78
2021/01/20 01:37:55;;;;;;;1.98;0.98;;;;;;;-0.78;87.31;98279.88;5032247;28;45311;-77
2021/01/20 01:40:20;;;;;;;1.95;1.00;;;;;;;-0.85;87.03;98262.84;5039494;28;45925;-78
2021/01/20 01:42:46;;;;;;;1.40;0.77;;;;;;;-0.81;86.79;98253.06;5039681;28;45475;-78
2021/01/20 01:45:11;;;;;;;3.13;1.25;;;;;;;-0.64;86.95;98255.59;5039410;28;45274;-77
2021/01/20 01:47:37;;;;;;;2.78;1.45;;;;;;;-1.17;87.79;98268.03;5039486;28;45309;-78
2021/01/20 01:50:03;;;;;;;2.70;1.20;;;;;;;-1.05;88.90;98269.16;5038176;28;46868;-78
2021/01/20 01:52:29;;;;;;;3.35;1.50;;;;;;;-0.87;88.12;98277.78;5038142;28;45417;-78
2021/01/20 01:54:55;;;;;;;3.47;1.70;;;;;;;-0.83;87.21;98270.59;5037272;28;45326;-78
2021/01/20 01:57:20;;;;;;;1.90;1.17;;;;;;;-0.77;87.09;98263.28;5038057;28;45473;-78
2021/01/20 01:59:47;;;;;;;3.25;1.50;;;;;;;-0.67;86.38;98249.72;5038966;28;45299;-78
2021/01/20 02:02:13;;;;;;;5.97;1.60;;;;;;;-0.56;86.73;98244.72;5038562;28;45297;-78
2021/01/20 02:04:38;;;;;;;4.57;2.40;;;;;;;-0.53;86.93;98236.72;5039303;28;45252;-78
2021/01/20 02:07:04;;;;;;;2.90;1.30;;;;;;;-0.52;87.72;98248.00;5039281;28;45226;-77
2021/01/20 02:09:30;;;;;;;2.72;1.40;;;;;;;-0.49;87.10;98246.06;5039153;28;45378;-77
2021/01/20 02:12:14;;;;;;;3.20;1.40;;;;;;;-0.55;86.87;98249.03;5039036;28;45223;-78
2021/01/20 02:14:54;;;;;;;2.67;1.20;;;;;;;-0.49;86.45;98247.81;5038007;28;45464;-78
2021/01/20 02:17:32;;;;;;;8.82;4.72;;;;;;;-1.06;85.44;98254.41;5038745;28;45310;-77
2021/01/20 02:20:19;;;;;;;7.43;4.32;;;;;;;-1.19;87.72;98255.06;5039168;28;45262;-78
2021/01/20 02:22:50;;;;;;;4.38;2.33;;;;;;;-1.08;87.49;98238.81;5028252;28;45269;-78
2021/01/20 02:25:31;;;;;;;3.22;1.65;;;;;;;-0.91;88.27;98242.28;5037685;28;45263;-77
2021/01/20 02:28:17;;;;;;;1.77;0.90;;;;;;;-0.84;87.56;98230.59;5037640;28;45535;-78
2021/01/20 02:30:44;;;;;;;2.72;1.33;;;;;;;-0.83;87.33;98234.03;5030488;28;45551;-77
2021/01/20 02:33:20;;;;;;;3.30;1.77;;;;;;;-0.90;87.95;98243.97;5031888;28;45318;-77
2021/01/20 02:35:50;;;;;;;12.68;7.68;;;;;;;-1.20;86.70;98235.13;5023112;28;45335;-78
2021/01/20 02:38:16;;;;;;;12.50;5.40;;;;;;;-1.26;87.10;98240.66;5034065;28;45488;-78
2021/01/20 02:40:41;;;;;;;4.45;2.00;;;;;;;-1.22;88.10;98234.34;5038959;28;45349;-77
2021/01/20 02:43:06;;;;;;;2.83;1.60;;;;;;;-1.12;89.02;98232.06;5038451;28;45474;-78
2021/01/20 02:45:32;;;;;;;4.50;2.22;;;;;;;-0.96;88.58;98223.41;5037842;28;45342;-78
2021/01/20 02:47:57;;;;;;;3.45;1.48;;;;;;;-0.88;88.41;98227.28;5037858;28;45555;-77
2021/01/20 02:50:23;;;;;;;3.88;1.77;;;;;;;-0.84;87.52;98240.19;5038668;28;46026;-78
2021/01/20 02:52:53;;;;;;;2.88;1.55;;;;;;;-0.76;86.78;98222.31;5038363;28;45497;-78
2021/01/20 02:55:22;;;;;;;3.63;1.45;;;;;;;-0.82;88.23;98230.50;5038087;28;45243;-77
2021/01/20 02:57:53;;;;;;;4.97;2.72;;;;;;;-0.92;87.18;98222.31;5038268;28;45477;-78
2021/01/20 03:00:20;;;;;;;3.00;1.38;;;;;;;-0.91;87.89;98221.38;5038330;28;46017;-78
2021/01/20 03:02:49;;;;;;;2.80;1.52;;;;;;;-0.78;87.26;98217.19;5037726;28;45295;-77
2021/01/20 03:05:17;;;;;;;2.45;1.30;;;;;;;-0.93;88.67;98218.00;5037225;28;45394;-78
2021/01/20 03:07:43;;;;;;;3.47;1.77;;;;;;;-0.73;87.68;98198.63;5038298;28;45283;-78
2021/01/20 03:10:10;;;;;;;3.28;1.40;;;;;;;-0.55;86.10;98201.13;5038278;28;45313;-78
2021/01/20 03:12:36;;;;;;;3.20;1.60;;;;;;;-0.57;86.39;98201.25;5036786;28;45693;-78
2021/01/20 03:15:09;;;;;;;3.30;1.35;;;;;;;-0.60;86.41;98211.88;5037089;28;45338;-78
2021/01/20 03:17:34;;;;;;;2.88;1.35;;;;;;;-0.59;86.25;98216.16;5024980;28;45224;-77
2021/01/20 03:20:00;;;;;;;2.92;1.30;;;;;;;-0.65;86.02;98200.84;5036681;28;47936;-78
2021/01/20 03:22:25;;;;;;;5.40;2.40;;;;;;;-0.59;86.12;98196.09;5038239;28;45489;-78
2021/01/20 03:24:51;;;;;;;9.02;5.00;;;;;;;-1.07;86.98;98208.34;5038227;28;45308;-78
2021/01/20 03:27:16;;;;;;;7.15;2.90;;;;;;;-0.95;87.11;98184.16;5037410;28;45522;-78
2021/01/20 03:29:42;;;;;;;4.95;2.67;;;;;;;-0.80;87.53;98197.28;5037796;28;45366;-78
2021/01/20 03:32:07;;;;;;;4.28;1.90;;;;;;;-0.83;87.05;98187.03;5024267;28;45616;-78
2021/01/20 03:34:34;;;;;;;3.20;1.58;;;;;;;-0.79;86.49;98180.69;5037841;28;45439;-77
2021/01/20 03:37:00;;;;;;;3.00;1.50;;;;;;;-0.66;86.98;98173.84;5026186;28;45330;-77
2021/01/20 03:39:26;;;;;;;2.90;1.40;;;;;;;-0.75;86.95;98184.81;5037740;28;46139;-78
2021/01/20 03:41:51;;;;;;;4.07;1.50;;;;;;;-0.66;86.76;98184.31;5037733;28;45363;-77
2021/01/20 03:44:17;;;;;;;2.55;1.30;;;;;;;-0.57;86.30;98182.09;5036632;28;45250;-77
2021/01/20 03:46:42;;;;;;;5.32;2.90;;;;;;;-0.67;86.25;98193.06;5037698;28;45346;-78
2021/01/20 03:49:07;;;;;;;3.15;1.48;;;;;;;-0.74;86.24;98163.84;5037445;28;45342;-78
2021/01/20 03:51:33;;;;;;;3.42;1.70;;;;;;;-0.62;85.44;98170.13;5037589;28;45369;-77
2021/01/20 03:54:00;;;;;;;3.05;1.33;;;;;;;-0.64;85.70;98166.78;5037090;28;45485;-78
2021/01/20 03:56:26;;;;;;;3.65;1.60;;;;;;;-0.62;86.01;98146.63;5035567;28;45605;-78
2021/01/20 03:58:51;;;;;;;3.88;1.90;;;;;;;-0.74;85.16;98148.19;5037416;28;45342;-78
2021/01/20 04:01:17;;;;;;;2.70;1.40;;;;;;;-0.57;85.27;98148.13;5037098;28;45333;-78
2021/01/20 04:03:42;;;;;;;4.75;2.22;;;;;;;-1.16;86.19;98156.66;5037147;28;45386;-77
2021/01/20 04:06:08;;;;;;;4.40;2.20;;;;;;;-1.08;87.37;98136.19;5037385;28;45536;-78
2021/01/20 04:08:34;;;;;;;3.10;1.30;;;;;;;-0.92;86.10;98146.59;5037706;28;45599;-78
2021/01/20 04:10:59;;;;;;;2.95;1.48;;;;;;;-0.83;86.31;98121.75;5037282;28;45347;-77
2021/01/20 04:13:25;;;;;;;3.90;1.75;;;;;;;-1.15;87.92;98140.06;5037663;28;45334;-78
2021/01/20 04:15:50;;;;;;;2.65;1.60;;;;;;;-1.10;86.99;98112.75;5037292;28;45441;-77
2021/01/20 04:18:16;;;;;;;3.97;1.50;;;;;;;-1.20;87.21;98122.03;5036699;28;45460;-77
2021/01/20 04:20:41;;;;;;;2.80;1.70;;;;;;;-1.13;86.90;98133.00;5037139;28;45501;-77
2021/01/20 04:23:06;;;;;;;3.78;1.80;;;;;;;-1.09;86.33;98137.94;5037414;28;45286;-78
2021/01/20 04:25:32;;;;;;;2.53;1.35;;;;;;;-1.20;87.74;98128.13;5037186;28;45534;-78
2021/01/20 04:27:57;;;;;;;4.38;2.00;;;;;;;-0.93;85.48;98129.25;5037038;28;46221;-78
2021/01/20 04:30:23;;;;;;;3.97;1.63;;;;;;;-0.92;86.60;98131.78;5033449;28;45370;-78
2021/01/20 04:32:49;;;;;;;4.85;1.90;;;;;;;-0.55;83.90;98114.91;5027281;28;45236;-79
2021/01/20 04:35:14;;;;;;;3.20;1.73;;;;;;;-0.49;84.38;98125.00;5034993;28;45357;-77
2021/01/20 04:37:40;;;;;;;8.35;4.20;;;;;;;-0.67;84.31;98124.31;5027414;28;45226;-77
2021/01/20 04:40:06;;;;;;;5.60;2.90;;;;;;;-1.08;85.71;98125.75;5036949;28;45224;-79
2021/01/20 04:42:32;;;;;;;6.82;3.30;;;;;;;-0.76;85.10;98113.47;5037171;28;45401;-78
2021/01/20 04:44:58;;;;;;;5.43;2.72;;;;;;;-0.67;84.64;98099.03;5037039;28;45365;-78
2021/01/20 04:47:24;;;;;;;6.20;2.35;;;;;;;-0.96;86.30;98109.38;5035306;28;47107;-78
2021/01/20 04:49:51;;;;;;;5.53;2.78;;;;;;;-0.86;86.09;98086.22;5036553;28;45590;-77
2021/01/20 04:52:19;;;;;;;4.15;1.80;;;;;;;-1.05;86.36;98099.47;5035572;28;45305;-78
2021/01/20 04:54:45;;;;;;;5.88;3.08;;;;;;;-1.07;87.08;98111.75;5036650;28;45555;-78
2021/01/20 04:57:13;;;;;;;7.78;3.83;;;;;;;-0.99;86.48;98088.69;5036759;28;46645;-78
2021/01/20 04:59:42;;;;;;;6.20;3.38;;;;;;;-1.60;88.38;98119.00;5036724;28;45459;-79
2021/01/20 05:02:12;;;;;;;8.10;4.40;;;;;;;-1.37;87.96;98083.81;5035993;28;45227;-78
2021/01/20 05:04:41;;;;;;;7.47;3.58;;;;;;;-1.32;87.96;98113.97;5036525;28;45423;-79
2021/01/20 05:07:07;;;;;;;6.00;3.17;;;;;;;-1.12;87.38;98104.19;5036449;28;46181;-77
2021/01/20 05:09:33;;;;;;;7.13;3.65;;;;;;;-1.38;88.98;98110.84;5037615;28;45918;-78
2021/01/20 05:11:59;;;;;;;3.35;1.90;;;;;;;-1.13;87.51;98097.28;5038926;28;45467;-78
2021/01/20 05:14:25;;;;;;;5.60;2.03;;;;;;;-1.32;89.07;98119.19;5040148;28;45164;-77
2021/01/20 05:16:52;;;;;;;3.80;1.90;;;;;;;-1.14;88.47;98105.19;5039997;28;45935;-77
2021/01/20 05:19:34;;;;;;;3.70;2.17;;;;;;;-1.11;87.68;98103.25;5039530;28;45440;-78
2021/01/20 05:22:04;;;;;;;3.13;1.60;;;;;;;-1.29;88.36;98110.34;5040024;28;45492;-78
2021/01/20 05:24:30;;;;;;;4.50;2.90;;;;;;;-1.29;89.24;98089.47;5040040;28;45298;-78
2021/01/20 05:26:56;;;;;;;4.50;2.45;;;;;;;-1.13;87.54;98083.41;5039810;28;45444;-78
2021/01/20 05:29:21;;;;;;;5.55;2.88;;;;;;;-1.39;88.51;98083.06;5039955;28;45421;-78
2021/01/20 05:31:47;;;;;;;2.88;1.40;;;;;;;-1.19;88.63;98088.03;5026432;28;45299;-78
2021/01/20 05:34:30;;;;;;;2.85;1.45;;;;;;;-1.10;87.40;98096.28;5039527;28;45398;-77
2021/01/20 05:37:10;;;;;;;7.93;4.40;;;;;;;-1.25;86.43;98083.16;5025254;28;46230;-78
2021/01/20 05:39:38;;;;;;;5.97;3.53;;;;;;;-1.55;88.24;98096.94;5039743;28;45285;-78
2021/01/20 05:42:08;;;;;;;9.48;5.30;;;;;;;-1.43;87.19;98074.56;5039703;28;45306;-78
2021/01/20 05:44:35;;;;;;;;;;;;;;;-1.30;87.26;98072.13;5040054;28;46439;-77
2021/01/20 05:47:11;;;;;;;4.05;1.60;;;;;;;-1.34;88.64;98076.66;5039186;28;46176;-78
2021/01/20 05:49:37;;;;;;;4.07;2.03;;;;;;;-1.52;87.33;98088.13;5038921;28;45445;-77
2021/01/20 05:52:03;;;;;;;4.72;2.60;;;;;;;-1.38;88.38;98083.00;5039789;28;45293;-77
2021/01/20 05:54:36;;;;;;;4.57;2.45;;;;;;;-1.38;88.17;98074.31;5037771;28;45609;-78
2021/01/20 05:57:28;;;;;;;3.20;1.77;;;;;;;-1.19;88.92;98079.34;5038067;28;48310;-78
2021/01/20 05:59:54;;;;;;;2.85;1.00;;;;;;;-0.99;87.67;98072.16;5038331;28;45442;-78
2021/01/20 06:02:20;;;;;;;1.85;1.05;;;;;;;-0.87;87.62;98084.53;5037225;28;45500;-77
2021/01/20 06:04:46;;;;;;;3.03;0.98;;;;;;;-0.97;87.74;98072.91;5029074;28;45515;-77
2021/01/20 06:07:15;;;;;;;2.28;1.10;;;;;;;-0.79;87.12;98084.94;5037141;28;45836;-78
2021/01/20 06:09:43;;;;;;;1.63;1.07;;;;;;;-0.82;87.42;98063.34;5022950;28;45738;-78
2021/01/20 06:12:10;;;;;;;2.15;1.05;;;;;;;-0.71;87.04;98068.78;5031752;28;45505;-78
2021/01/20 06:14:41;;;;;;;3.33;1.40;;;;;;;-0.27;84.24;98058.44;5034361;28;45211;-77
2021/01/20 06:17:35;;;;;;;3.08;1.35;;;;;;;-0.49;84.70;98044.00;5036980;28;46020;-78
2021/01/20 06:20:02;;;;;;;2.05;1.02;;;;;;;-0.57;85.96;98047.09;5037191;28;45544;-81
2021/01/20 06:22:30;;;;;;;4.78;1.65;;;;;;;-0.58;85.35;98050.66;5034823;28;45342;-82
2021/01/20 06:25:04;;;;;;;8.38;3.78;;;;;;;-0.96;86.82;98051.09;5035537;28;45526;-80
2021/01/20 06:27:57;;;;;;;13.48;6.47;;;;;;;-0.82;86.32;98056.38;5033130;28;45219;-79
2021/01/20 06:30:38;;;;;;;3.00;1.38;;;;;;;-0.85;86.35;98058.31;5038069;28;45440;-77
2021/01/20 06:33:13;;;;;;;2.95;1.30;;;;;;;-0.75;86.87;98049.88;5037014;28;45469;-78
2021/01/20 06:35:43;;;;;;;2.97;1.10;;;;;;;-0.64;87.10;98046.59;5031479;28;45488;-77
2021/01/20 06:38:27;;;;;;;2.58;1.00;;;;;;;-0.61;86.86;98038.59;5023831;28;45290;-76
2021/01/20 06:41:00;;;;;;;1.92;0.90;;;;;;;-0.70;87.26;98041.75;5036583;28;45496;-76
2021/01/20 06:43:39;;;;;;;3.78;2.55;;;;;;;-0.72;86.69;98032.34;5037545;28;45437;-76
2021/01/20 06:46:20;;;;;;;1.70;1.00;;;;;;;-0.63;86.82;98035.22;5038033;28;45283;-76
2021/01/20 06:48:51;;;;;;;2.08;1.00;;;;;;;-0.56;85.96;98033.09;5035567;28;45473;-78
2021/01/20 06:51:17;;;;;;;9.13;4.18;;;;;;;-0.60;86.12;98037.66;5036081;28;45511;-78
2021/01/20 06:56:49;;;;;;;14.90;6.82;;;;;;;-0.88;85.52;98036.69;5032407;28;45552;-78
2021/01/20 06:59:32;;;;;;;12.90;5.95;;;;;;;-0.90;85.78;98051.59;5026409;28;45545;-78
2021/01/20 07:02:04;;;;;;;11.70;4.78;;;;;;;-1.01;85.92;98037.47;5036100;28;45590;-78
2021/01/20 07:04:38;;;;;;;9.32;4.40;;;;;;;-1.04;87.05;98048.94;5030170;28;45509;-79
2021/01/20 07:07:07;;;;;;;3.50;1.63;;;;;;;-0.99;86.87;98033.00;5034378;28;45430;-78
2021/01/20 07:09:51;;;;;;;1.85;1.15;;;;;;;-0.93;87.17;98028.28;5036169;28;46409;-78
2021/01/20 07:12:24;;;;;;;2.75;1.40;;;;;;;-0.80;87.92;98024.94;5031925;28;45539;-79
2021/01/20 07:14:53;;;;;;;3.97;1.48;;;;;;;-0.68;87.37;98024.22;5030375;28;45318;-80
2021/01/20 07:17:20;;;;;;;2.35;1.60;;;;;;;-0.70;87.31;98013.00;5036568;28;45601;-78
2021/01/20 07:19:46;;;;;;;1.25;0.80;;;;;;;-0.60;87.09;98021.97;5032608;28;45519;-79
2021/01/20 07:22:13;;;;;;;1.73;0.90;;;;;;;-0.55;87.49;98026.94;5028475;28;45333;-77
2021/01/20 07:24:39;;;;;;;1.65;0.70;;;;;;;-0.56;87.21;98011.34;5029678;28;45548;-78
2021/01/20 07:27:12;;;;;;;1.90;0.90;;;;;;;-0.52;87.19;98013.69;5033648;28;45317;-79
2021/01/20 07:29:37;;;;;;;6.30;2.50;;;;;;;-0.61;87.04;97994.19;5032044;28;46342;-77
2021/01/20 07:32:04;;;;;;;2.90;1.25;;;;;;;-0.51;87.34;98009.31;5032672;28;45475;-77
2021/01/20 07:34:37;;;;;;;2.92;1.38;;;;;;;-0.69;87.45;98017.31;5032567;28;45353;-76
2021/01/20 07:37:10;;;;;;;7.57;4.38;;;;;;;-0.67;87.31;98012.00;5034539;28;45550;-75
2021/01/20 07:39:36;;;;;;;9.43;6.15;;;;;;;-0.62;85.01;98002.13;5033793;28;45575;-75
2021/01/20 07:42:03;;;;;;;22.88;12.55;;;;;;;-0.64;86.10;98010.03;5036090;28;45424;-75
2021/01/20 07:44:28;;;;;;;15.05;8.40;;;;;;;-0.75;86.05;98008.09;5036164;28;45547;-75
2021/01/20 07:46:58;;;;;;;17.67;10.63;;;;;;;-0.61;85.73;97994.19;5034794;28;45357;-76
2021/01/20 07:49:24;;;;;;;3.63;1.90;;;;;;;-0.45;86.60;97990.63;5031836;28;45805;-76
2021/01/20 07:52:22;;;;;;;1.83;1.00;;;;;;;-0.36;87.40;97977.03;5034561;28;45377;-76
2021/01/20 07:54:51;;;;;;;1.73;1.00;;;;;;;-0.26;88.36;97968.63;5012308;28;45450;-78
2021/01/20 07:57:21;;;;;;;2.25;1.02;;;;;;;-0.14;88.61;97973.09;5034704;28;45683;-77
2021/01/20 08:00:02;;;;;;;4.20;1.45;;;;;;;-0.04;88.89;97970.72;5035170;28;46265;-79
2021/01/20 08:02:27;;;;;;;4.28;2.60;;;;;;;0.03;87.84;97981.66;5032933;28;45541;-78
2021/01/20 08:05:03;;;;;;;12.10;6.78;;;;;;;-0.08;85.82;97977.09;5036290;28;45538;-79
2021/01/20 08:07:28;;;;;;;41.10;20.27;;;;;;;-0.01;83.33;97979.25;5036475;28;45557;-77
2021/01/20 08:09:54;;;;;;;16.40;6.25;;;;;;;0.06;83.07;97978.84;5034742;28;47979;-76
2021/01/20 08:12:26;;;;;;;7.68;4.55;;;;;;;0.18;82.10;97980.69;5027864;28;45594;-76
2021/01/20 08:14:52;;;;;;;10.35;6.80;;;;;;;0.18;82.17;97978.06;5035115;28;45639;-77
2021/01/20 08:17:19;;;;;;;8.77;5.95;;;;;;;0.26;82.15;97969.75;5035841;28;45546;-77
2021/01/20 08:19:47;;;;;;;3.97;2.35;;;;;;;0.47;83.39;97964.94;5035735;28;45911;-77
2021/01/20 08:22:14;;;;;;;8.10;3.80;;;;;;;0.56;84.20;97961.72;5032139;28;45455;-75
2021/01/20 08:24:51;;;;;;;12.45;7.22;;;;;;;0.56;82.33;97958.25;5033742;28;45574;-76
2021/01/20 08:27:28;;;;;;;10.82;5.78;;;;;;;0.51;81.24;97963.78;5033524;28;45630;-76
2021/01/20 08:29:56;;;;;;;12.88;7.05;;;;;;;0.61;82.77;97961.38;5035397;28;45553;-76
2021/01/20 08:32:22;;;;;;;7.07;4.97;;;;;;;0.75;83.43;97950.03;5035495;28;45308;-76
2021/01/20 08:34:49;;;;;;;10.88;6.45;;;;;;;0.84;83.79;97972.97;5036281;28;45493;-74
2021/01/20 08:37:21;;;;;;;27.92;14.57;;;;;;;0.84;81.38;97965.13;5034255;28;45521;-80
2021/01/20 08:39:56;;;;;;;20.63;12.63;;;;;;;0.81;80.48;97960.09;5035043;28;46143;-76
2021/01/20 08:42:28;;;;;;;20.27;11.52;;;;;;;0.67;80.96;97960.16;5035844;28;45425;-76
2021/01/20 08:45:19;;;;;;;20.10;11.65;;;;;;;0.75;81.76;97963.13;5037024;28;45515;-76
2021/01/20 08:47:49;;;;;;;21.10;11.57;;;;;;;0.96;81.59;97962.63;5033528;28;45360;-75
2021/01/20 08:50:20;;;;;;;17.60;10.13;;;;;;;0.90;79.87;97937.72;5038043;28;46060;-76
2021/01/20 08:52:51;;;;;;;16.73;9.98;;;;;;;0.97;82.62;97951.22;5039476;28;45457;-75
2021/01/20 08:55:30;;;;;;;17.63;10.00;;;;;;;0.81;81.14;97948.75;5037693;28;45445;-76
2021/01/20 08:58:24;;;;;;;19.10;9.73;;;;;;;0.92;81.12;97950.69;5039472;28;45484;-75
2021/01/20 09:01:15;;;;;;;13.52;8.93;;;;;;;1.21;81.88;97945.25;5039044;28;45402;-75
2021/01/20 09:03:53;;;;;;;10.50;6.95;;;;;;;1.21;82.03;97943.50;5031820;28;45440;-75
2021/01/20 09:06:19;;;;;;;11.23;6.40;;;;;;;1.35;80.60;97929.44;5038982;28;45384;-75
2021/01/20 09:08:44;;;;;;;11.60;5.70;;;;;;;1.43;82.45;97931.53;5038907;28;45596;-75
2021/01/20 09:11:10;;;;;;;10.70;5.70;;;;;;;1.48;83.28;97937.28;5038868;28;46280;-75
2021/01/20 09:13:35;;;;;;;15.20;9.30;;;;;;;1.59;82.37;97941.78;5038470;28;45426;-75
2021/01/20 09:16:01;;;;;;;14.40;8.10;;;;;;;1.53;80.12;97936.97;5039190;28;45375;-76
2021/01/20 09:18:26;;;;;;;12.35;6.20;;;;;;;1.67;81.02;97928.97;5038818;28;45476;-75
2021/01/20 09:20:52;;;;;;;9.32;5.30;;;;;;;1.74;82.24;97924.13;5038810;28;45524;-76
2021/01/20 09:23:18;;;;;;;7.75;4.68;;;;;;;1.71;83.68;97921.72;5038777;28;45511;-77
2021/01/20 09:25:44;;;;;;;23.35;12.35;;;;;;;1.75;82.42;97921.41;5038265;28;45321;-78
2021/01/20 09:28:10;;;;;;;23.20;13.02;;;;;;;1.57;81.85;97918.28;5038725;28;45543;-76
2021/01/20 09:30:36;;;;;;;21.23;13.98;;;;;;;1.68;81.52;97908.84;5033468;28;46098;-75
2021/01/20 09:33:02;;;;;;;13.23;9.35;;;;;;;1.79;81.27;97889.72;5030295;28;45384;-76
2021/01/20 09:35:28;;;;;;;15.18;9.70;;;;;;;1.89;82.47;97916.97;5037889;28;45534;-74
2021/01/20 09:37:53;;;;;;;24.10;14.30;;;;;;;1.84;80.63;97892.88;5035650;28;45554;-75
2021/01/20 09:40:21;;;;;;;20.75;13.32;;;;;;;1.93;81.95;97912.38;5037115;28;46052;-76
2021/01/20 09:42:47;;;;;;;17.77;10.50;;;;;;;1.84;79.16;97898.09;5036793;28;45457;-77
2021/01/20 09:45:14;;;;;;;17.25;10.07;;;;;;;1.92;79.46;97905.44;5038316;28;45405;-76
2021/01/20 09:47:43;;;;;;;18.80;11.77;;;;;;;2.06;79.39;97912.31;5038787;28;45378;-76
2021/01/20 09:50:10;;;;;;;15.70;10.10;;;;;;;2.00;78.36;97908.34;5037542;28;48192;-78
2021/01/20 09:52:36;;;;;;;15.18;8.48;;;;;;;2.15;79.44;97880.16;5037799;28;45331;-78
2021/01/20 09:55:04;;;;;;;17.17;11.85;;;;;;;2.31;79.23;97869.38;5038221;28;45315;-77
2021/01/20 09:57:29;;;;;;;12.55;6.88;;;;;;;2.33;78.91;97857.84;5038647;28;45334;-77
2021/01/20 09:59:55;;;;;;;12.32;7.45;;;;;;;2.47;79.82;97879.59;5038876;28;46143;-77
2021/01/20 10:02:20;;;;;;;21.45;13.20;;;;;;;2.28;77.10;97885.34;5031965;28;45516;-78
2021/01/20 10:04:46;;;;;;;18.42;10.50;;;;;;;2.39;79.33;97880.16;5039060;28;45510;-77
2021/01/20 10:07:13;;;;;;;16.70;9.88;;;;;;;2.53;79.38;97867.78;5038614;28;45477;-77
2021/01/20 10:09:39;;;;;;;17.70;10.10;;;;;;;2.55;77.90;97855.38;5038704;28;45644;-78
2021/01/20 10:12:06;;;;;;;17.30;9.43;;;;;;;2.62;79.40;97870.56;5038211;28;45263;-76
2021/01/20 10:14:32;;;;;;;14.55;8.18;;;;;;;2.52;74.98;97868.72;5038801;28;45326;-78
2021/01/20 10:16:57;;;;;;;16.15;8.48;;;;;;;2.69;74.81;97859.59;5036983;28;45584;-78
2021/01/20 10:19:23;;;;;;;11.10;5.95;;;;;;;2.77;74.46;97858.09;5038563;28;45853;-79
2021/01/20 10:21:48;;;;;;;8.75;3.83;;;;;;;2.90;71.78;97847.47;5038462;28;45348;-78
2021/01/20 10:24:14;;;;;;;8.07;4.72;;;;;;;3.02;72.31;97848.31;5036456;28;45445;-78
2021/01/20 10:26:40;;;;;;;45.78;20.52;;;;;;;3.08;72.53;97833.03;5037956;28;45465;-81
2021/01/20 10:29:06;;;;;;;29.38;13.80;;;;;;;3.27;71.98;97835.06;5037924;28;45779;-79
2021/01/20 10:31:34;;;;;;;10.70;4.78;;;;;;;3.40;72.67;97841.03;5035898;28;45386;-79
2021/01/20 10:34:00;;;;;;;13.77;6.55;;;;;;;3.40;72.30;97843.66;5038239;28;45284;-83
2021/01/20 10:36:26;;;;;;;14.85;6.97;;;;;;;3.52;70.45;97827.88;5028632;28;45524;-81
2021/01/20 10:38:52;;;;;;;12.18;6.35;;;;;;;3.62;72.70;97839.34;5038420;28;46108;-78
2021/01/20 10:41:19;;;;;;;6.60;3.65;;;;;;;3.47;68.04;97808.06;5038223;28;45362;-81
2021/01/20 10:43:45;;;;;;;8.70;4.50;;;;;;;3.72;70.54;97819.22;5037992;28;45309;-79
2021/01/20 10:46:10;;;;;;;7.32;3.53;;;;;;;3.91;69.74;97801.94;5032722;28;45555;-82
2021/01/20 10:48:35;;;;;;;8.30;4.65;;;;;;;3.89;67.91;97798.63;5037965;28;46154;-79
2021/01/20 10:51:01;;;;;;;5.65;3.28;;;;;;;4.06;68.92;97800.72;5038118;28;45464;-79
2021/01/20 10:53:26;;;;;;;7.45;3.80;;;;;;;4.20;70.60;97785.59;5037950;28;45688;-79
2021/01/20 10:55:52;;;;;;;7.07;3.85;;;;;;;4.18;67.04;97775.19;5037105;28;45466;-80
2021/01/20 10:58:17;;;;;;;7.38;3.90;;;;;;;4.31;68.32;97771.53;5037022;28;45294;-82
2021/01/20 11:00:46;;;;;;;4.68;3.00;;;;;;;4.28;69.09;97764.72;5032989;28;45535;-78
2021/01/20 11:03:13;;;;;;;4.93;2.80;;;;;;;4.20;67.64;97757.47;5035171;28;45560;-79
2021/01/20 11:05:39;;;;;;;7.35;3.08;;;;;;;4.28;70.01;97745.44;5034776;28;45498;-79
2021/01/20 11:08:05;;;;;;;6.63;4.57;;;;;;;4.26;68.87;97731.59;5032290;28;45991;-80
2021/01/20 11:10:30;;;;;;;7.97;4.18;;;;;;;4.34;70.94;97722.09;5037616;28;45526;-80
2021/01/20 11:12:56;;;;;;;6.05;3.65;;;;;;;4.33;71.76;97728.31;5037394;28;45516;-80
2021/01/20 11:15:21;;;;;;;7.07;4.18;;;;;;;4.24;67.53;97706.22;5037318;28;45381;-79
2021/01/20 11:17:49;;;;;;;9.32;4.13;;;;;;;4.37;67.17;97715.72;5035688;28;47744;-79
2021/01/20 11:20:15;;;;;;;8.82;4.32;;;;;;;4.66;68.19;97705.34;5034385;28;45352;-81
2021/01/20 11:22:40;;;;;;;9.85;4.30;;;;;;;4.81;66.45;97713.72;5036169;28;45307;-84
2021/01/20 11:25:07;;;;;;;8.23;4.07;;;;;;;4.64;65.50;97690.66;5046775;28;45392;-85
2021/01/20 11:27:33;;;;;;;8.15;4.85;;;;;;;4.58;64.19;97678.00;5037347;28;45368;-82
2021/01/20 11:29:58;;;;;;;10.15;4.70;;;;;;;4.59;66.96;97683.13;5035875;28;45566;-80
2021/01/20 11:32:24;;;;;;;10.85;5.30;;;;;;;4.57;65.38;97676.34;5037298;28;45390;-82
2021/01/20 11:34:49;;;;;;;11.00;5.55;;;;;;;4.60;68.69;97665.53;5037220;28;45578;-84
2021/01/20 11:37:15;;;;;;;10.93;5.40;;;;;;;4.81;67.44;97670.72;5029905;28;46047;-82
2021/01/20 11:39:41;;;;;;;11.02;5.25;;;;;;;4.91;66.83;97676.88;5037333;28;45340;-80
2021/01/20 11:42:06;;;;;;;9.25;4.88;;;;;;;4.77;68.03;97670.19;5037471;28;45406;-82